createdAt,value
2017-05-23T00:00:24.254Z,51.14
2017-05-23T00:00:50.359Z,51.05
2017-05-23T00:01:16.467Z,50.95
2017-05-23T00:01:42.609Z,50.95
2017-05-23T00:02:08.762Z,50.66
2017-05-23T00:02:34.884Z,51.14
2017-05-23T00:03:01.042Z,51.05
2017-05-23T00:03:27.225Z,51.14
2017-05-23T00:03:53.315Z,51.24
2017-05-23T00:04:19.421Z,51.24
2017-05-23T00:04:45.557Z,51.05
2017-05-23T00:05:11.694Z,50.95
2017-05-23T00:05:37.822Z,51.43
2017-05-23T00:06:03.930Z,51.14
2017-05-23T00:06:30.021Z,51.43
2017-05-23T00:06:56.118Z,51.62
2017-05-23T00:07:22.226Z,51.62
2017-05-23T00:07:48.321Z,51.53
2017-05-23T00:08:14.484Z,51.72
2017-05-23T00:08:40.647Z,51.79
2017-05-23T00:09:06.775Z,52.08
2017-05-23T00:09:32.883Z,52.47
2017-05-23T00:09:59.053Z,52.27
2017-05-23T00:10:25.199Z,52.37
2017-05-23T00:10:51.335Z,52.37
2017-05-23T00:11:17.454Z,52.08
2017-05-23T00:11:43.568Z,52.47
2017-05-23T00:12:09.681Z,52.66
2017-05-23T00:12:35.835Z,52.47
2017-05-23T00:13:02.002Z,52.95
2017-05-23T00:13:28.189Z,52.56
2017-05-23T00:13:54.287Z,52.56
2017-05-23T00:14:20.477Z,52.47
2017-05-23T00:14:46.654Z,52.75
2017-05-23T00:15:12.771Z,52.95
2017-05-23T00:15:38.913Z,53.05
2017-05-23T00:16:05.009Z,53.05
2017-05-23T00:16:31.102Z,52.95
2017-05-23T00:16:57.264Z,52.27
2017-05-23T00:17:23.392Z,53.05
2017-05-23T00:17:49.510Z,53.14
2017-05-23T00:18:15.722Z,53.14
2017-05-23T00:18:41.859Z,53.14
2017-05-23T00:19:07.953Z,52.56
2017-05-23T00:19:34.079Z,52.56
2017-05-23T00:20:00.219Z,52.85
2017-05-23T00:20:26.354Z,53.05
2017-05-23T00:20:52.485Z,52.95
2017-05-23T00:21:18.603Z,53.05
2017-05-23T00:21:44.705Z,53.05
2017-05-23T00:22:10.840Z,52.95
2017-05-23T00:22:36.932Z,53.07
2017-05-23T00:23:03.084Z,53.27
2017-05-23T00:23:29.248Z,53.05
2017-05-23T00:23:55.418Z,52.66
2017-05-23T00:24:21.563Z,52.75
2017-05-23T00:24:47.718Z,52.85
2017-05-23T00:25:13.871Z,53.27
2017-05-23T00:25:40.006Z,53.05
2017-05-23T00:26:06.099Z,52.97
2017-05-23T00:26:32.226Z,52.85
2017-05-23T00:26:58.362Z,53.05
2017-05-23T00:27:24.453Z,53.05
2017-05-23T00:27:50.628Z,53.07
2017-05-23T00:28:16.762Z,52.95
2017-05-23T00:28:42.996Z,52.78
2017-05-23T00:29:09.101Z,53.05
2017-05-23T00:29:35.268Z,53.05
2017-05-23T00:30:01.480Z,52.95
2017-05-23T00:30:27.554Z,52.95
2017-05-23T00:30:53.721Z,52.95
2017-05-23T00:31:19.846Z,52.97
2017-05-23T00:31:46.007Z,52.95
2017-05-23T00:32:12.130Z,52.95
2017-05-23T00:32:38.221Z,53.81
2017-05-23T00:33:04.389Z,53.84
2017-05-23T00:33:30.542Z,53.62
2017-05-23T00:33:56.685Z,53.07
2017-05-23T00:34:22.877Z,53.23
2017-05-23T00:34:49.006Z,52.97
2017-05-23T00:35:15.099Z,53.17
2017-05-23T00:35:41.205Z,52.87
2017-05-23T00:36:07.323Z,53.07
2017-05-23T00:36:33.462Z,52.78
2017-05-23T00:36:59.563Z,52.97
2017-05-23T00:37:25.702Z,53.05
2017-05-23T00:37:51.866Z,53.07
2017-05-23T00:38:17.966Z,52.97
2017-05-23T00:38:44.060Z,53.27
2017-05-23T00:39:10.217Z,52.95
2017-05-23T00:39:36.380Z,52.95
2017-05-23T00:40:02.517Z,52.75
2017-05-23T00:40:28.621Z,53.07
2017-05-23T00:40:54.757Z,53.43
2017-05-23T00:41:20.871Z,53.81
2017-05-23T00:41:46.969Z,53.81
2017-05-23T00:42:13.076Z,53.72
2017-05-23T00:42:39.174Z,53.53
2017-05-23T00:43:05.364Z,53.72
2017-05-23T00:43:31.504Z,53.23
2017-05-23T00:43:57.681Z,53.23
2017-05-23T00:44:23.827Z,53.23
2017-05-23T00:44:50.111Z,53.33
2017-05-23T00:45:16.240Z,53.43
2017-05-23T00:45:42.334Z,53.33
2017-05-23T00:46:08.485Z,53.53
2017-05-23T00:46:34.591Z,53.91
2017-05-23T00:47:00.687Z,53.91
2017-05-23T00:47:26.810Z,53.81
2017-05-23T00:47:52.954Z,53.72
2017-05-23T00:48:19.078Z,53.81
2017-05-23T00:48:45.179Z,53.81
2017-05-23T00:49:11.319Z,54.2
2017-05-23T00:49:37.449Z,53.81
2017-05-23T00:50:03.612Z,54.58
2017-05-23T00:50:29.701Z,54.49
2017-05-23T00:50:55.803Z,54.39
2017-05-23T00:51:21.940Z,54.58
2017-05-23T00:51:48.033Z,54.94
2017-05-23T00:52:14.156Z,54.78
2017-05-23T00:52:40.307Z,54.68
2017-05-23T00:53:06.488Z,55.07
2017-05-23T00:53:32.623Z,54.87
2017-05-23T00:53:58.739Z,54.39
2017-05-23T00:54:24.866Z,54.3
2017-05-23T00:54:51.029Z,54.1
2017-05-23T00:55:17.120Z,54
2017-05-23T00:55:43.265Z,54.49
2017-05-23T00:56:09.373Z,54.39
2017-05-23T00:56:35.470Z,54.2
2017-05-23T00:57:01.586Z,54.68
2017-05-23T00:57:27.726Z,54.58
2017-05-23T00:57:53.877Z,54.68
2017-05-23T00:58:20.059Z,54.58
2017-05-23T00:58:46.255Z,54.58
2017-05-23T00:59:12.341Z,54.78
2017-05-23T00:59:38.504Z,54.78
2017-05-23T01:00:04.651Z,54.87
2017-05-23T01:00:30.745Z,54.58
2017-05-23T01:00:56.856Z,54.78
2017-05-23T01:01:22.953Z,54.68
2017-05-23T01:01:49.044Z,54.68
2017-05-23T01:02:15.154Z,54.68
2017-05-23T01:02:41.308Z,54.78
2017-05-23T01:03:07.450Z,54.78
2017-05-23T01:03:33.613Z,54.58
2017-05-23T01:03:59.728Z,54.68
2017-05-23T01:04:25.868Z,55.07
2017-05-23T01:04:52.047Z,54.87
2017-05-23T01:05:18.136Z,54.78
2017-05-23T01:05:44.273Z,54.68
2017-05-23T01:06:10.376Z,54.68
2017-05-23T01:06:36.519Z,54.68
2017-05-23T01:07:02.676Z,54.46
2017-05-23T01:07:28.786Z,54.68
2017-05-23T01:07:54.896Z,54.78
2017-05-23T01:08:21.050Z,54.87
2017-05-23T01:08:47.186Z,55.16
2017-05-23T01:09:13.327Z,55.16
2017-05-23T01:09:39.484Z,55.16
2017-05-23T01:10:05.575Z,55.16
2017-05-23T01:10:31.676Z,55.07
2017-05-23T01:10:57.813Z,55.13
2017-05-23T01:11:23.900Z,55.52
2017-05-23T01:11:50.000Z,55.33
2017-05-23T01:12:16.110Z,55.13
2017-05-23T01:12:42.202Z,55.81
2017-05-23T01:13:08.350Z,55.9
2017-05-23T01:13:34.485Z,55.81
2017-05-23T01:14:00.629Z,55.9
2017-05-23T01:14:26.721Z,55.9
2017-05-23T01:14:52.878Z,55.9
2017-05-23T01:15:18.977Z,55.81
2017-05-23T01:15:45.110Z,55.71
2017-05-23T01:16:11.205Z,55.71
2017-05-23T01:16:37.305Z,55.81
2017-05-23T01:17:03.413Z,55.81
2017-05-23T01:17:29.507Z,55.9
2017-05-23T01:17:55.649Z,55.9
2017-05-23T01:18:21.787Z,55.9
2017-05-23T01:18:47.887Z,55.81
2017-05-23T01:19:14.003Z,55.52
2017-05-23T01:19:40.110Z,55.9
2017-05-23T01:20:06.210Z,55.62
2017-05-23T01:20:32.311Z,56
2017-05-23T01:20:58.433Z,55.9
2017-05-23T01:21:24.549Z,55.71
2017-05-23T01:21:50.715Z,55.71
2017-05-23T01:22:16.893Z,55.9
2017-05-23T01:22:43.009Z,55.62
2017-05-23T01:23:09.172Z,55.71
2017-05-23T01:23:35.301Z,55.71
2017-05-23T01:24:01.443Z,55.71
2017-05-23T01:24:27.577Z,56
2017-05-23T01:24:53.740Z,56
2017-05-23T01:25:19.859Z,55.9
2017-05-23T01:25:45.983Z,56
2017-05-23T01:26:12.089Z,56
2017-05-23T01:26:38.181Z,56.1
2017-05-23T01:27:04.279Z,56
2017-05-23T01:27:30.413Z,56
2017-05-23T01:27:56.587Z,56.38
2017-05-23T01:28:22.729Z,56.38
2017-05-23T01:28:48.868Z,56.48
2017-05-23T01:29:14.995Z,56.48
2017-05-23T01:29:41.093Z,56.38
2017-05-23T01:30:07.229Z,55.9
2017-05-23T01:30:33.329Z,56.48
2017-05-23T01:30:59.446Z,56.29
2017-05-23T01:31:25.611Z,56.67
2017-05-23T01:31:51.778Z,56.67
2017-05-23T01:32:17.891Z,56.58
2017-05-23T01:32:44.001Z,56.67
2017-05-23T01:33:10.171Z,56.58
2017-05-23T01:33:36.259Z,57.06
2017-05-23T01:34:02.415Z,56.77
2017-05-23T01:34:28.556Z,56.77
2017-05-23T01:34:54.714Z,56.87
2017-05-23T01:35:20.845Z,56.67
2017-05-23T01:35:46.936Z,56.96
2017-05-23T01:36:13.031Z,56.67
2017-05-23T01:36:39.138Z,56.87
2017-05-23T01:37:05.229Z,56.67
2017-05-23T01:37:31.334Z,56.67
2017-05-23T01:37:57.450Z,56.87
2017-05-23T01:38:23.609Z,56.77
2017-05-23T01:38:49.716Z,56.87
2017-05-23T01:39:15.806Z,57.06
2017-05-23T01:39:41.906Z,57.15
2017-05-23T01:40:08.053Z,57.42
2017-05-23T01:40:34.160Z,57.6
2017-05-23T01:41:00.279Z,57.8
2017-05-23T01:41:26.415Z,57.32
2017-05-23T01:41:52.509Z,57.99
2017-05-23T01:42:18.601Z,58.18
2017-05-23T01:42:44.737Z,57.8
2017-05-23T01:43:10.861Z,57.99
2017-05-23T01:43:37.026Z,58.09
2017-05-23T01:44:03.193Z,58.09
2017-05-23T01:44:29.342Z,57.99
2017-05-23T01:44:55.474Z,57.9
2017-05-23T01:45:21.695Z,57.99
2017-05-23T01:45:47.787Z,57.99
2017-05-23T01:46:13.927Z,57.9
2017-05-23T01:46:40.026Z,57.99
2017-05-23T01:47:06.120Z,57.9
2017-05-23T01:47:32.277Z,57.9
2017-05-23T01:47:58.406Z,57.9
2017-05-23T01:48:24.557Z,57.7
2017-05-23T01:48:50.704Z,57.8
2017-05-23T01:49:16.872Z,57.9
2017-05-23T01:49:43.068Z,57.8
2017-05-23T01:50:09.221Z,57.99
2017-05-23T01:50:35.389Z,57.7
2017-05-23T01:51:01.494Z,57.99
2017-05-23T01:51:27.595Z,58.09
2017-05-23T01:51:53.737Z,57.99
2017-05-23T01:52:19.842Z,58.28
2017-05-23T01:52:46.008Z,58.57
2017-05-23T01:53:12.097Z,58.47
2017-05-23T01:53:38.221Z,58.57
2017-05-23T01:54:04.318Z,58.09
2017-05-23T01:54:30.453Z,58.47
2017-05-23T01:54:56.582Z,58.95
2017-05-23T01:55:22.673Z,58.83
2017-05-23T01:55:48.784Z,59.12
2017-05-23T01:56:14.945Z,59.12
2017-05-23T01:56:41.060Z,59.12
2017-05-23T01:57:07.187Z,59.12
2017-05-23T01:57:33.323Z,59.34
2017-05-23T01:57:59.488Z,58.83
2017-05-23T01:58:25.638Z,58.92
2017-05-23T01:58:51.773Z,59.12
2017-05-23T01:59:17.893Z,59.15
2017-05-23T01:59:44.003Z,59.02
2017-05-23T02:00:10.145Z,59.02
2017-05-23T02:00:36.244Z,58.86
2017-05-23T02:01:02.413Z,58.86
2017-05-23T02:01:28.503Z,58.86
2017-05-23T02:01:54.602Z,59.05
2017-05-23T02:02:20.710Z,59.05
2017-05-23T02:02:46.831Z,58.47
2017-05-23T02:03:12.943Z,58.95
2017-05-23T02:03:39.108Z,59.05
2017-05-23T02:04:05.230Z,59.15
2017-05-23T02:04:31.320Z,59.15
2017-05-23T02:04:57.480Z,59.05
2017-05-23T02:05:23.603Z,58.86
2017-05-23T02:05:49.711Z,58.76
2017-05-23T02:06:15.829Z,58.76
2017-05-23T02:06:41.945Z,58.95
2017-05-23T02:07:08.100Z,59.05
2017-05-23T02:07:34.236Z,58.95
2017-05-23T02:08:00.351Z,58.86
2017-05-23T02:08:26.486Z,58.76
2017-05-23T02:08:52.645Z,58.86
2017-05-23T02:09:18.739Z,59.24
2017-05-23T02:09:44.894Z,59.24
2017-05-23T02:10:11.033Z,59.82
2017-05-23T02:10:37.120Z,59.15
2017-05-23T02:11:03.240Z,59.05
2017-05-23T02:11:29.376Z,58.95
2017-05-23T02:11:55.469Z,59.15
2017-05-23T02:12:21.593Z,58.95
2017-05-23T02:12:47.757Z,59.05
2017-05-23T02:13:13.850Z,58.95
2017-05-23T02:13:39.993Z,59.15
2017-05-23T02:14:06.107Z,58.76
2017-05-23T02:14:32.232Z,59.15
2017-05-23T02:14:58.346Z,59.15
2017-05-23T02:15:24.452Z,59.24
2017-05-23T02:15:50.553Z,58.95
2017-05-23T02:16:16.676Z,59.24
2017-05-23T02:16:42.772Z,58.95
2017-05-23T02:17:08.864Z,59.15
2017-05-23T02:17:34.975Z,59.05
2017-05-23T02:18:01.152Z,58.95
2017-05-23T02:18:27.296Z,59.05
2017-05-23T02:18:53.514Z,58.76
2017-05-23T02:19:19.642Z,59.05
2017-05-23T02:19:45.785Z,59.05
2017-05-23T02:20:11.887Z,59.15
2017-05-23T02:20:38.023Z,58.86
2017-05-23T02:21:04.112Z,58.86
2017-05-23T02:21:30.258Z,59.05
2017-05-23T02:21:56.376Z,59.05
2017-05-23T02:22:22.514Z,58.95
2017-05-23T02:22:48.614Z,59.24
2017-05-23T02:23:14.749Z,58.67
2017-05-23T02:23:40.877Z,58.67
2017-05-23T02:24:06.985Z,58.76
2017-05-23T02:24:33.128Z,59.15
2017-05-23T02:24:59.257Z,58.76
2017-05-23T02:25:25.390Z,58.67
2017-05-23T02:25:51.482Z,59.05
2017-05-23T02:26:17.630Z,58.67
2017-05-23T02:26:43.765Z,59.15
2017-05-23T02:27:09.863Z,59.05
2017-05-23T02:27:35.969Z,58.67
2017-05-23T02:28:02.110Z,58.95
2017-05-23T02:28:28.237Z,59.05
2017-05-23T02:28:54.402Z,58.76
2017-05-23T02:29:20.523Z,58.67
2017-05-23T02:29:46.688Z,58.76
2017-05-23T02:30:12.796Z,58.47
2017-05-23T02:30:38.917Z,58.95
2017-05-23T02:31:05.008Z,58.86
2017-05-23T02:31:31.145Z,58.95
2017-05-23T02:31:57.243Z,58.37
2017-05-23T02:32:23.333Z,58.76
2017-05-23T02:32:49.468Z,58.76
2017-05-23T02:33:15.588Z,59.05
2017-05-23T02:33:41.752Z,59.34
2017-05-23T02:34:07.870Z,58.76
2017-05-23T02:34:34.012Z,58.76
2017-05-23T02:35:00.121Z,59.15
2017-05-23T02:35:26.218Z,59.05
2017-05-23T02:35:52.309Z,59.05
2017-05-23T02:36:18.414Z,58.92
2017-05-23T02:36:44.540Z,59.15
2017-05-23T02:37:10.681Z,59.05
2017-05-23T02:37:36.815Z,59.02
2017-05-23T02:38:02.923Z,59.02
2017-05-23T02:38:29.068Z,59.05
2017-05-23T02:38:55.190Z,59.72
2017-05-23T02:39:21.309Z,59.79
2017-05-23T02:39:47.443Z,59.6
2017-05-23T02:40:13.568Z,59.53
2017-05-23T02:40:39.662Z,59.82
2017-05-23T02:41:05.794Z,59.53
2017-05-23T02:41:31.956Z,59.6
2017-05-23T02:41:58.070Z,59.5
2017-05-23T02:42:24.168Z,59.69
2017-05-23T02:42:50.332Z,59.79
2017-05-23T02:43:16.439Z,59.82
2017-05-23T02:43:42.585Z,59.79
2017-05-23T02:44:08.744Z,59.53
2017-05-23T02:44:34.900Z,59.53
2017-05-23T02:45:01.119Z,59.72
2017-05-23T02:45:27.209Z,59.79
2017-05-23T02:45:53.356Z,59.69
2017-05-23T02:46:19.463Z,59.89
2017-05-23T02:46:45.557Z,59.89
2017-05-23T02:47:11.657Z,60.17
2017-05-23T02:47:37.791Z,59.41
2017-05-23T02:48:03.992Z,59.69
2017-05-23T02:48:30.109Z,60.08
2017-05-23T02:48:56.250Z,59.89
2017-05-23T02:49:22.422Z,59.99
2017-05-23T02:49:48.581Z,60.17
2017-05-23T02:50:14.697Z,59.99
2017-05-23T02:50:40.823Z,60.17
2017-05-23T02:51:06.958Z,60.56
2017-05-23T02:51:33.055Z,60.37
2017-05-23T02:51:59.146Z,60.08
2017-05-23T02:52:25.255Z,60.46
2017-05-23T02:52:51.379Z,60.56
2017-05-23T02:53:17.519Z,60.08
2017-05-23T02:53:43.681Z,60.17
2017-05-23T02:54:09.841Z,60.66
2017-05-23T02:54:35.980Z,60.75
2017-05-23T02:55:02.138Z,60.66
2017-05-23T02:55:28.272Z,60.66
2017-05-23T02:55:54.710Z,60.66
2017-05-23T02:56:20.812Z,60.46
2017-05-23T02:56:46.946Z,60.56
2017-05-23T02:57:13.039Z,60.46
2017-05-23T02:57:39.186Z,60.08
2017-05-23T02:58:05.322Z,60.17
2017-05-23T02:58:31.467Z,60.66
2017-05-23T02:58:57.583Z,60.85
2017-05-23T02:59:23.743Z,60.85
2017-05-23T02:59:49.869Z,60.75
2017-05-23T03:00:15.978Z,60.46
2017-05-23T03:00:42.086Z,60.75
2017-05-23T03:01:08.230Z,60.46
2017-05-23T03:01:34.362Z,60.56
2017-05-23T03:02:00.480Z,60.37
2017-05-23T03:02:26.601Z,60.46
2017-05-23T03:02:52.797Z,60.56
2017-05-23T03:03:18.926Z,61.43
2017-05-23T03:03:45.063Z,61.4
2017-05-23T03:04:11.197Z,61.14
2017-05-23T03:04:37.326Z,61.43
2017-05-23T03:05:03.466Z,61.43
2017-05-23T03:05:29.569Z,61.33
2017-05-23T03:05:55.735Z,61.43
2017-05-23T03:06:21.828Z,61.14
2017-05-23T03:06:47.953Z,61.23
2017-05-23T03:07:14.044Z,61.33
2017-05-23T03:07:40.203Z,61.23
2017-05-23T03:08:06.333Z,60.94
2017-05-23T03:08:32.477Z,61.14
2017-05-23T03:08:58.630Z,61.14
2017-05-23T03:09:24.794Z,61.14
2017-05-23T03:09:50.913Z,61.43
2017-05-23T03:10:17.013Z,61.43
2017-05-23T03:10:43.121Z,61.33
2017-05-23T03:11:09.213Z,61.33
2017-05-23T03:11:35.337Z,60.46
2017-05-23T03:12:01.433Z,61.2
2017-05-23T03:12:27.538Z,61.01
2017-05-23T03:12:53.673Z,61.3
2017-05-23T03:13:19.760Z,61.3
2017-05-23T03:13:45.884Z,61.01
2017-05-23T03:14:12.020Z,61.3
2017-05-23T03:14:38.130Z,61.2
2017-05-23T03:15:04.227Z,61.3
2017-05-23T03:15:30.334Z,61.3
2017-05-23T03:15:56.429Z,61.2
2017-05-23T03:16:22.544Z,61.49
2017-05-23T03:16:48.653Z,61.2
2017-05-23T03:17:14.753Z,61.2
2017-05-23T03:17:40.918Z,61.49
2017-05-23T03:18:07.025Z,61.49
2017-05-23T03:18:33.126Z,61.58
2017-05-23T03:18:59.290Z,61.49
2017-05-23T03:19:25.426Z,61.58
2017-05-23T03:19:51.588Z,61.87
2017-05-23T03:20:17.678Z,61.97
2017-05-23T03:20:43.803Z,61.49
2017-05-23T03:21:09.939Z,61.58
2017-05-23T03:21:36.081Z,61.49
2017-05-23T03:22:02.203Z,61.4
2017-05-23T03:22:28.366Z,61.78
2017-05-23T03:22:54.464Z,61.78
2017-05-23T03:23:20.602Z,61.87
2017-05-23T03:23:46.689Z,61.87
2017-05-23T03:24:12.863Z,62.45
2017-05-23T03:24:39.000Z,62.26
2017-05-23T03:25:05.142Z,62.26
2017-05-23T03:25:31.266Z,62.16
2017-05-23T03:25:57.373Z,62.16
2017-05-23T03:26:23.818Z,62.45
2017-05-23T03:26:49.933Z,62.16
2017-05-23T03:27:16.072Z,62.16
2017-05-23T03:27:42.227Z,62.55
2017-05-23T03:28:08.346Z,62.45
2017-05-23T03:28:34.508Z,62.35
2017-05-23T03:29:00.658Z,62.16
2017-05-23T03:29:26.762Z,62.35
2017-05-23T03:29:52.884Z,62.45
2017-05-23T03:30:18.975Z,62.35
2017-05-23T03:30:45.140Z,62.35
2017-05-23T03:31:11.237Z,62.26
2017-05-23T03:31:37.328Z,62.35
2017-05-23T03:32:03.459Z,62.26
2017-05-23T03:32:29.588Z,62.74
2017-05-23T03:32:55.706Z,62.07
2017-05-23T03:33:21.813Z,62.45
2017-05-23T03:33:47.973Z,62.45
2017-05-23T03:34:14.118Z,62.16
2017-05-23T03:34:40.242Z,62.16
2017-05-23T03:35:06.357Z,62.26
2017-05-23T03:35:32.491Z,62.16
2017-05-23T03:35:58.594Z,62.55
2017-05-23T03:36:24.733Z,62.35
2017-05-23T03:36:50.865Z,62.64
2017-05-23T03:37:16.972Z,62.45
2017-05-23T03:37:43.085Z,62.26
2017-05-23T03:38:09.236Z,62.64
2017-05-23T03:38:35.346Z,62.84
2017-05-23T03:39:01.490Z,62.74
2017-05-23T03:39:27.636Z,62.93
2017-05-23T03:39:53.794Z,62.35
2017-05-23T03:40:19.887Z,62.26
2017-05-23T03:40:45.978Z,62.07
2017-05-23T03:41:12.116Z,62.26
2017-05-23T03:41:38.246Z,62.45
2017-05-23T03:42:04.359Z,62.74
2017-05-23T03:42:30.466Z,62.84
2017-05-23T03:42:56.624Z,62.84
2017-05-23T03:43:22.741Z,62.74
2017-05-23T03:43:48.874Z,62.74
2017-05-23T03:44:15.009Z,62.9
2017-05-23T03:44:41.095Z,62.32
2017-05-23T03:45:07.220Z,62.52
2017-05-23T03:45:33.341Z,62.52
2017-05-23T03:45:59.503Z,62.42
2017-05-23T03:46:25.602Z,62.81
2017-05-23T03:46:51.718Z,62.93
2017-05-23T03:47:17.824Z,62.9
2017-05-23T03:47:43.985Z,62.99
2017-05-23T03:48:10.152Z,62.99
2017-05-23T03:48:36.302Z,62.45
2017-05-23T03:49:02.409Z,62.52
2017-05-23T03:49:28.572Z,62.45
2017-05-23T03:49:54.696Z,62.55
2017-05-23T03:50:20.802Z,62.42
2017-05-23T03:50:46.895Z,62.99
2017-05-23T03:51:13.032Z,63.19
2017-05-23T03:51:39.117Z,63.12
2017-05-23T03:52:05.246Z,62.84
2017-05-23T03:52:31.382Z,62.93
2017-05-23T03:52:57.545Z,62.99
2017-05-23T03:53:23.694Z,63.02
2017-05-23T03:53:49.802Z,63.02
2017-05-23T03:54:15.949Z,62.55
2017-05-23T03:54:42.040Z,62.64
2017-05-23T03:55:08.154Z,62.45
2017-05-23T03:55:34.254Z,62.81
2017-05-23T03:56:00.375Z,62.35
2017-05-23T03:56:26.888Z,62.35
2017-05-23T03:56:53.006Z,62.99
2017-05-23T03:57:19.113Z,62.99
2017-05-23T03:57:45.261Z,63.28
2017-05-23T03:58:11.380Z,63.09
2017-05-23T03:58:37.540Z,63.28
2017-05-23T03:59:03.661Z,63.09
2017-05-23T03:59:29.773Z,63.19
2017-05-23T03:59:55.936Z,63.28
2017-05-23T04:00:22.036Z,63.38
2017-05-23T04:00:48.154Z,63.28
2017-05-23T04:01:14.286Z,63.57
2017-05-23T04:01:40.401Z,63.38
2017-05-23T04:02:06.520Z,63.38
2017-05-23T04:02:32.618Z,63.76
2017-05-23T04:02:58.737Z,63.57
2017-05-23T04:03:24.871Z,63.38
2017-05-23T04:03:51.027Z,64.25
2017-05-23T04:04:17.146Z,64.05
2017-05-23T04:04:43.280Z,64.15
2017-05-23T04:05:09.415Z,64.34
2017-05-23T04:05:35.501Z,64.15
2017-05-23T04:06:01.626Z,64.34
2017-05-23T04:06:27.765Z,64.34
2017-05-23T04:06:53.904Z,63.76
2017-05-23T04:07:20.005Z,63.76
2017-05-23T04:07:46.160Z,63.67
2017-05-23T04:08:12.315Z,64.05
2017-05-23T04:08:38.479Z,63.96
2017-05-23T04:09:04.585Z,63.57
2017-05-23T04:09:30.712Z,63.76
2017-05-23T04:09:56.850Z,63.57
2017-05-23T04:10:22.946Z,63.57
2017-05-23T04:10:49.045Z,63.57
2017-05-23T04:11:15.152Z,63.38
2017-05-23T04:11:41.297Z,63.38
2017-05-23T04:12:07.417Z,63.57
2017-05-23T04:12:33.552Z,63.57
2017-05-23T04:12:59.703Z,64.25
2017-05-23T04:13:25.838Z,64.25
2017-05-23T04:13:51.982Z,64.05
2017-05-23T04:14:18.081Z,63.86
2017-05-23T04:14:44.213Z,63.96
2017-05-23T04:15:10.360Z,63.57
2017-05-23T04:15:36.450Z,64.15
2017-05-23T04:16:02.559Z,64.15
2017-05-23T04:16:28.660Z,64.15
2017-05-23T04:16:54.749Z,64.05
2017-05-23T04:17:20.911Z,64.05
2017-05-23T04:17:47.094Z,63.96
2017-05-23T04:18:13.214Z,63.96
2017-05-23T04:18:39.393Z,64.25
2017-05-23T04:19:05.484Z,64.05
2017-05-23T04:19:31.624Z,64.05
2017-05-23T04:19:57.752Z,64.15
2017-05-23T04:20:23.870Z,63.96
2017-05-23T04:20:49.975Z,64.43
2017-05-23T04:21:16.074Z,63.76
2017-05-23T04:21:42.164Z,63.96
2017-05-23T04:22:08.266Z,64.05
2017-05-23T04:22:34.371Z,63.76
2017-05-23T04:23:00.511Z,63.86
2017-05-23T04:23:26.663Z,63.76
2017-05-23T04:23:52.768Z,63.96
2017-05-23T04:24:18.911Z,63.67
2017-05-23T04:24:45.061Z,64.25
2017-05-23T04:25:11.222Z,64.63
2017-05-23T04:25:37.316Z,64.25
2017-05-23T04:26:03.409Z,64.25
2017-05-23T04:26:29.520Z,63.96
2017-05-23T04:26:55.617Z,64.15
2017-05-23T04:27:21.733Z,64.05
2017-05-23T04:27:47.840Z,64.05
2017-05-23T04:28:13.969Z,63.48
2017-05-23T04:28:40.085Z,63.67
2017-05-23T04:29:06.217Z,63.76
2017-05-23T04:29:32.342Z,64.05
2017-05-23T04:29:58.517Z,64.05
2017-05-23T04:30:24.640Z,64.05
2017-05-23T04:30:50.732Z,63.96
2017-05-23T04:31:16.841Z,63.86
2017-05-23T04:31:42.941Z,63.38
2017-05-23T04:32:09.047Z,63.28
2017-05-23T04:32:35.164Z,63.38
2017-05-23T04:33:01.357Z,63.38
2017-05-23T04:33:27.496Z,63.28
2017-05-23T04:33:53.651Z,63.41
2017-05-23T04:34:19.808Z,62.99
2017-05-23T04:34:45.949Z,63.19
2017-05-23T04:35:12.102Z,63.38
2017-05-23T04:35:38.229Z,62.99
2017-05-23T04:36:04.359Z,63.02
2017-05-23T04:36:30.492Z,62.99
2017-05-23T04:36:56.579Z,63.09
2017-05-23T04:37:22.703Z,62.9
2017-05-23T04:37:48.838Z,63.02
2017-05-23T04:38:14.959Z,62.93
2017-05-23T04:38:41.109Z,62.99
2017-05-23T04:39:07.243Z,62.81
2017-05-23T04:39:33.340Z,62.9
2017-05-23T04:39:59.454Z,62.9
2017-05-23T04:40:25.562Z,62.99
2017-05-23T04:40:51.659Z,62.99
2017-05-23T04:41:17.763Z,63.38
2017-05-23T04:41:43.903Z,63.48
2017-05-23T04:42:10.000Z,63.38
2017-05-23T04:42:36.108Z,63.19
2017-05-23T04:43:02.255Z,62.9
2017-05-23T04:43:28.396Z,63.22
2017-05-23T04:43:54.534Z,63.12
2017-05-23T04:44:20.632Z,62.93
2017-05-23T04:44:46.824Z,63.09
2017-05-23T04:45:12.958Z,63.19
2017-05-23T04:45:39.063Z,63.19
2017-05-23T04:46:05.154Z,63.48
2017-05-23T04:46:31.305Z,63.96
2017-05-23T04:46:57.417Z,63.48
2017-05-23T04:47:23.612Z,63.38
2017-05-23T04:47:49.739Z,63.28
2017-05-23T04:48:15.826Z,63.32
2017-05-23T04:48:41.989Z,63.41
2017-05-23T04:49:08.176Z,63.02
2017-05-23T04:49:34.292Z,62.93
2017-05-23T04:50:00.417Z,62.35
2017-05-23T04:50:26.526Z,61.91
2017-05-23T04:50:52.615Z,61.52
2017-05-23T04:51:18.742Z,61.14
2017-05-23T04:51:44.877Z,60.66
2017-05-23T04:52:10.999Z,60.66
2017-05-23T04:52:37.126Z,60.46
2017-05-23T04:53:03.239Z,60.27
2017-05-23T04:53:29.371Z,60.11
2017-05-23T04:53:55.562Z,60.01
2017-05-23T04:54:21.653Z,59.53
2017-05-23T04:54:47.825Z,59.44
2017-05-23T04:55:13.965Z,59.72
2017-05-23T04:55:40.054Z,59.15
2017-05-23T04:56:06.150Z,59.05
2017-05-23T04:56:32.258Z,58.86
2017-05-23T04:56:58.354Z,59.05
2017-05-23T04:57:24.471Z,59.05
2017-05-23T04:57:50.604Z,58.95
2017-05-23T04:58:16.706Z,58.67
2017-05-23T04:58:42.869Z,58.86
2017-05-23T04:59:09.024Z,58.95
2017-05-23T04:59:35.137Z,58.76
2017-05-23T05:00:01.273Z,59.34
2017-05-23T05:00:27.370Z,59.05
2017-05-23T05:00:53.484Z,58.7
2017-05-23T05:01:19.623Z,58.79
2017-05-23T05:01:45.726Z,58.37
2017-05-23T05:02:11.844Z,59.15
2017-05-23T05:02:37.951Z,59.05
2017-05-23T05:03:04.052Z,59.15
2017-05-23T05:03:30.207Z,58.76
2017-05-23T05:03:56.328Z,59.05
2017-05-23T05:04:22.444Z,59.15
2017-05-23T05:04:48.585Z,58.67
2017-05-23T05:05:14.683Z,59.34
2017-05-23T05:05:40.779Z,58.57
2017-05-23T05:06:06.885Z,58.67
2017-05-23T05:06:33.039Z,59.05
2017-05-23T05:06:59.158Z,58.95
2017-05-23T05:07:25.263Z,58.86
2017-05-23T05:07:51.397Z,59.05
2017-05-23T05:08:17.509Z,59.05
2017-05-23T05:08:43.636Z,59.15
2017-05-23T05:09:09.801Z,58.86
2017-05-23T05:09:35.943Z,59.15
2017-05-23T05:10:02.039Z,58.67
2017-05-23T05:10:28.174Z,58.79
2017-05-23T05:10:54.270Z,58.79
2017-05-23T05:11:20.385Z,58.95
2017-05-23T05:11:46.552Z,58.67
2017-05-23T05:12:12.652Z,58.86
2017-05-23T05:12:38.744Z,58.67
2017-05-23T05:13:04.880Z,58.98
2017-05-23T05:13:30.980Z,58.6
2017-05-23T05:13:57.124Z,58.57
2017-05-23T05:14:23.228Z,58.67
2017-05-23T05:14:49.369Z,58.67
2017-05-23T05:15:15.479Z,58.98
2017-05-23T05:15:41.577Z,59.05
2017-05-23T05:16:07.670Z,59.44
2017-05-23T05:16:33.780Z,58.7
2017-05-23T05:16:59.882Z,58.89
2017-05-23T05:17:26.024Z,58.95
2017-05-23T05:17:52.210Z,58.76
2017-05-23T05:18:18.373Z,58.47
2017-05-23T05:18:44.541Z,58.76
2017-05-23T05:19:10.667Z,58.95
2017-05-23T05:19:36.835Z,59.15
2017-05-23T05:20:02.973Z,58.95
2017-05-23T05:20:29.075Z,59.24
2017-05-23T05:20:55.170Z,59.34
2017-05-23T05:21:21.302Z,58.95
2017-05-23T05:21:47.439Z,58.86
2017-05-23T05:22:13.557Z,58.86
2017-05-23T05:22:39.653Z,58.95
2017-05-23T05:23:05.791Z,58.86
2017-05-23T05:23:31.884Z,59.05
2017-05-23T05:23:58.005Z,58.76
2017-05-23T05:24:24.170Z,58.67
2017-05-23T05:24:50.318Z,59.08
2017-05-23T05:25:16.412Z,59.05
2017-05-23T05:25:42.506Z,58.7
2017-05-23T05:26:08.604Z,59.08
2017-05-23T05:26:34.740Z,58.86
2017-05-23T05:27:00.833Z,58.89
2017-05-23T05:27:26.957Z,58.7
2017-05-23T05:27:53.094Z,58.31
2017-05-23T05:28:19.222Z,58.12
2017-05-23T05:28:45.340Z,58.76
2017-05-23T05:29:11.448Z,58.76
2017-05-23T05:29:37.575Z,58.76
2017-05-23T05:30:03.692Z,58.67
2017-05-23T05:30:29.798Z,58.67
2017-05-23T05:30:55.926Z,58.67
2017-05-23T05:31:22.027Z,58.37
2017-05-23T05:31:48.146Z,57.92
2017-05-23T05:32:14.265Z,57.92
2017-05-23T05:32:40.402Z,57.83
2017-05-23T05:33:06.529Z,58.02
2017-05-23T05:33:32.648Z,57.73
2017-05-23T05:33:58.812Z,58.09
2017-05-23T05:34:24.969Z,57.99
2017-05-23T05:34:51.064Z,57.7
2017-05-23T05:35:17.191Z,57.7
2017-05-23T05:35:43.300Z,57.99
2017-05-23T05:36:09.419Z,57.8
2017-05-23T05:36:35.518Z,57.99
2017-05-23T05:37:01.640Z,57.8
2017-05-23T05:37:27.776Z,57.92
2017-05-23T05:37:53.907Z,57.51